Details for Ryanair at LCPH




Go Back


Latest METAR
Local Time

LCPH 240730Z 22006KT 180V250 CAVOK 26/22 Q1012

24/05/2018, 10:49:43

Description
Results
Ryanair Logo
Number of Pilots based at LCPH
0 Pilots Based here
Number of Ryanair Flights Departed from LCPH
3 Flights Departed
Number of Ryanair Flights Arrived at LCPH
2 Flights Arrived
Number of Ryanair Schedules Departing from LCPH
37 Schedules
Number of Ryanair Schedules Arriving at LCPH
36 Schedules
Number of Ryanair Schedules Departing from LCPH availible today
10 Schedules Today
Number of Ryanair Schedules Arriving at LCPH availible today
9 Schedules Today
Average Landing Rate at LCPH
-227 fpm
Ryanair Average Landing Rate at LCPH
-249 fpm
Total Fuel Purchased at LCPH by Ryanair
29,011.36 kgs / 63,958.44 lbs

Pilots Based at LCPH


Pilot ID
Pilot Name
Pilot Rank
No. of Flights
No. of Flying Hours
There are no pilots assigned to this hub!   Will you be the first?
Content